Time;durP1;ratioP1;P1;durP2;ratioP2;P2;SDS_P1;SDS_P2;PMS_P1;PMS_P2;Temp;Humidity;BMP_temperature;BMP_pressure;BME280_temperature;BME280_humidity;BME280_pressure;Samples;Min_cycle;Max_cycle;Signal;HPM_P1;HPM_P2
2023/04/03 00:00:50;;;;;;;;;;;;;;;3.93;56.19;98778.16;5083972;28;19924;-58
2023/04/03 00:03:19;;;;;;;;;;;;;;;3.92;56.27;98773.06;5089240;28;19931;-57
2023/04/03 00:05:47;;;;;;;;;;;;;;;3.77;56.32;98775.50;5075180;28;19924;-59
2023/04/03 00:08:15;;;;;;;;;;;;;;;3.86;56.82;98779.41;5093779;28;20489;-57
2023/04/03 00:10:43;;;;;;;;;;;;;;;3.89;57.03;98778.94;5094331;28;20002;-58
2023/04/03 00:13:11;;;;;;;;;;;;;;;3.84;57.29;98779.66;5091485;28;19970;-58
2023/04/03 00:15:39;;;;;;;;;;;;;;;3.78;57.67;98780.66;5080682;28;19924;-59
2023/04/03 00:18:07;;;;;;;;;;;;;;;3.70;57.79;98782.94;5094013;28;19924;-61
2023/04/03 00:20:36;;;;;;;;;;;;;;;3.70;58.21;98775.69;5090404;28;19931;-58
2023/04/03 00:23:04;;;;;;;;;;;;;;;3.73;58.18;98782.44;5095631;28;19923;-58
2023/04/03 00:25:32;;;;;;;;;;;;;;;3.79;57.63;98782.28;5094997;28;19924;-58
2023/04/03 00:28:00;;;;;;;;;;;;;;;3.66;57.52;98783.41;5101916;28;19931;-58
2023/04/03 00:30:28;;;;;;;;;;;;;;;3.64;58.47;98788.22;5087525;28;19932;-58
2023/04/03 00:32:56;;;;;;;;;;;;;;;3.70;58.14;98782.94;5097603;28;19936;-58
2023/04/03 00:35:24;;;;;;;;;;;;;;;3.62;58.59;98792.19;5091144;28;19955;-58
2023/04/03 00:37:54;;;;;;;;;;;;;;;3.67;57.59;98779.69;5071444;28;20304;-58
2023/04/03 00:40:22;;;;;;;;;;;;;;;3.73;58.21;98782.44;5084048;28;20399;-58
2023/04/03 00:42:52;;;;;;;;;;;;;;;3.71;58.34;98780.00;5076000;28;19924;-58
2023/04/03 00:45:28;;;;;;;;;;;;;;;3.65;58.72;98786.34;5088429;28;20388;-58
2023/04/03 00:47:56;;;;;;;;;;;;;;;3.66;59.00;98785.28;5074479;28;20344;-58
2023/04/03 00:50:24;;;;;;;;;;;;;;;3.64;58.75;98785.53;5089045;28;19935;-57
2023/04/03 00:52:55;;;;;;;;;;;;;;;3.59;59.01;98782.78;5072806;28;20309;-58
2023/04/03 00:55:23;;;;;;;;;;;;;;;3.56;58.41;98783.25;5090632;28;20392;-58
2023/04/03 00:57:51;;;;;;;;;;;;;;;3.59;58.73;98788.16;5101767;28;20336;-58
2023/04/03 01:00:20;;;;;;;;;;;;;;;3.47;59.01;98784.72;5075986;28;19931;-58
2023/04/03 01:02:49;;;;;;;;;;;;;;;3.48;58.89;98780.16;5081868;28;19959;-58
2023/04/03 01:05:17;;;;;;;;;;;;;;;3.62;58.81;98779.59;5093485;28;19969;-58
2023/04/03 01:07:45;;;;;;;;;;;;;;;3.55;59.36;98780.81;5071572;28;19924;-58
2023/04/03 01:10:15;;;;;;;;;;;;;;;3.52;58.86;98784.00;5092079;28;19928;-58
2023/04/03 01:12:44;;;;;;;;;;;;;;;3.42;58.38;98781.97;5085644;28;19923;-58
2023/04/03 01:15:15;;;;;;;;;;;;;;;3.35;59.06;98786.66;5071720;28;19932;-58
2023/04/03 01:17:43;;;;;;;;;;;;;;;3.42;58.95;98785.47;5090665;28;19924;-57
2023/04/03 01:20:32;;;;;;;;;;;;;;;3.34;59.21;98779.66;5094658;28;19924;-58
2023/04/03 01:23:06;;;;;;;;;;;;;;;3.44;59.09;98779.84;5090176;28;20429;-58
2023/04/03 01:25:36;;;;;;;;;;;;;;;3.32;59.67;98784.47;5094586;28;19924;-60
2023/04/03 01:28:04;;;;;;;;;;;;;;;3.34;59.39;98785.03;5099181;28;19930;-58
2023/04/03 01:30:33;;;;;;;;;;;;;;;3.35;59.06;98786.66;5074181;28;19924;-58
2023/04/03 01:33:02;;;;;;;;;;;;;;;3.31;58.64;98785.53;5074691;28;19963;-58
2023/04/03 01:35:33;;;;;;;;;;;;;;;3.30;58.85;98789.25;5076234;28;19925;-59
2023/04/03 01:38:01;;;;;;;;;;;;;;;3.27;59.29;98779.00;5091234;27;19986;-58
2023/04/03 01:40:28;;;;;;;;;;;;;;;3.30;58.78;98786.56;5081345;28;19935;-57
2023/04/03 01:42:58;;;;;;;;;;;;;;;3.28;58.29;98786.81;5083149;28;20012;-58
2023/04/03 01:45:27;;;;;;;;;;;;;;;3.35;58.69;98784.78;5082916;28;19924;-58
2023/04/03 01:47:57;;;;;;;;;;;;;;;3.31;57.80;98780.97;5100602;28;20296;-58
2023/04/03 01:50:27;;;;;;;;;;;;;;;3.12;58.37;98791.09;5061759;28;20403;-57
2023/04/03 01:52:55;;;;;;;;;;;;;;;3.17;59.25;98784.19;5081847;28;19969;-57
2023/04/03 01:55:23;;;;;;;;;;;;;;;3.06;59.01;98786.72;5077972;28;19924;-59
2023/04/03 01:57:51;;;;;;;;;;;;;;;2.99;59.12;98782.56;5085752;28;20265;-58
2023/04/03 02:00:19;;;;;;;;;;;;;;;2.95;59.45;98787.56;5092953;27;19966;-58
2023/04/03 02:02:47;;;;;;;;;;;;;;;2.95;59.08;98786.75;5078356;28;19932;-58
2023/04/03 02:05:16;;;;;;;;;;;;;;;3.09;58.38;98778.19;5109344;27;19924;-58
2023/04/03 02:07:45;;;;;;;;;;;;;;;2.93;58.67;98784.34;5087156;28;19953;-58
2023/04/03 02:10:13;;;;;;;;;;;;;;;2.92;58.50;98782.69;5113329;27;19934;-58
2023/04/03 02:12:42;;;;;;;;;;;;;;;2.85;59.10;98780.13;5087583;28;19928;-58
2023/04/03 02:15:10;;;;;;;;;;;;;;;2.68;59.99;98775.78;5078376;28;19924;-58
2023/04/03 02:17:38;;;;;;;;;;;;;;;2.79;60.24;98782.97;5099393;28;19927;-57
2023/04/03 02:20:06;;;;;;;;;;;;;;;2.91;59.77;98789.09;5093886;28;20292;-59
2023/04/03 02:22:34;;;;;;;;;;;;;;;2.79;60.04;98785.66;5073278;28;19924;-60
2023/04/03 02:25:03;;;;;;;;;;;;;;;2.72;59.28;98787.69;5074509;28;19932;-58
2023/04/03 02:27:32;;;;;;;;;;;;;;;2.62;60.00;98783.75;5088870;28;19927;-57
2023/04/03 02:29:59;;;;;;;;;;;;;;;2.62;60.00;98789.09;5074607;28;19928;-58
2023/04/03 02:32:27;;;;;;;;;;;;;;;2.60;60.39;98785.81;5088014;28;19924;-58
2023/04/03 02:34:56;;;;;;;;;;;;;;;2.66;60.30;98780.56;5071831;28;19924;-57
2023/04/03 02:37:24;;;;;;;;;;;;;;;2.56;60.19;98783.88;5066670;28;19968;-58
2023/04/03 02:39:54;;;;;;;;;;;;;;;2.41;61.07;98789.75;5087610;28;22611;-58
2023/04/03 02:42:23;;;;;;;;;;;;;;;2.51;61.24;98781.91;5089795;28;20405;-57
2023/04/03 02:44:52;;;;;;;;;;;;;;;2.57;61.18;98777.47;5088626;28;19956;-58
2023/04/03 02:47:20;;;;;;;;;;;;;;;2.42;61.21;98794.06;5071337;28;19925;-58
2023/04/03 02:49:48;;;;;;;;;;;;;;;2.31;62.07;98786.84;5095017;28;20037;-57
2023/04/03 02:52:17;;;;;;;;;;;;;;;2.39;61.77;98782.97;5086837;28;19939;-59
2023/04/03 02:54:44;;;;;;;;;;;;;;;2.32;61.84;98788.47;5089512;28;20288;-57
2023/04/03 02:57:12;;;;;;;;;;;;;;;2.33;61.88;98787.41;5089562;28;20336;-58
2023/04/03 02:59:42;;;;;;;;;;;;;;;2.20;62.89;98787.69;5083390;28;19971;-58
2023/04/03 03:02:11;;;;;;;;;;;;;;;2.14;63.47;98780.59;5083047;28;20309;-58
2023/04/03 03:04:39;;;;;;;;;;;;;;;2.22;63.16;98788.25;5091469;28;19945;-58
2023/04/03 03:07:09;;;;;;;;;;;;;;;2.23;63.15;98789.88;5074786;28;19931;-59
2023/04/03 03:09:39;;;;;;;;;;;;;;;2.19;63.76;98788.75;5076545;28;19968;-58
2023/04/03 03:12:10;;;;;;;;;;;;;;;2.30;63.36;98790.59;5091824;28;19925;-58
2023/04/03 03:14:38;;;;;;;;;;;;;;;2.25;63.24;98795.84;5092476;28;19924;-57
2023/04/03 03:17:07;;;;;;;;;;;;;;;2.09;64.27;98792.81;5083487;28;19927;-58
2023/04/03 03:19:35;;;;;;;;;;;;;;;2.25;63.82;98793.16;5073998;28;19997;-57
2023/04/03 03:22:02;;;;;;;;;;;;;;;2.16;64.48;98791.88;5084807;28;19931;-58
2023/04/03 03:24:30;;;;;;;;;;;;;;;2.14;64.93;98785.94;5085132;28;20395;-58
2023/04/03 03:26:58;;;;;;;;;;;;;;;2.26;64.36;98795.59;5075731;28;20343;-58
2023/04/03 03:29:28;;;;;;;;;;;;;;;2.15;64.90;98787.56;5075570;28;20443;-58
2023/04/03 03:31:56;;;;;;;;;;;;;;;2.14;65.27;98789.44;5086938;28;19950;-58
2023/04/03 03:34:26;;;;;;;;;;;;;;;2.19;65.38;98783.38;5095564;28;19935;-58
2023/04/03 03:36:53;;;;;;;;;;;;;;;2.11;65.73;98789.91;5071949;28;20008;-59
2023/04/03 03:39:21;;;;;;;;;;;;;;;2.15;65.60;98790.25;5095130;28;20318;-58
2023/04/03 03:41:50;;;;;;;;;;;;;;;2.21;65.68;98789.31;5080023;28;19935;-60
2023/04/03 03:44:18;;;;;;;;;;;;;;;2.31;65.40;98786.84;5085121;28;19967;-58
2023/04/03 03:46:46;;;;;;;;;;;;;;;2.26;65.82;98795.59;5092873;28;19939;-58
2023/04/03 03:49:16;;;;;;;;;;;;;;;2.46;65.67;98792.53;5074436;28;19924;-58
2023/04/03 03:51:46;;;;;;;;;;;;;;;2.27;66.05;98791.03;5094869;28;19924;-57
2023/04/03 03:54:15;;;;;;;;;;;;;;;2.43;65.39;98793.00;5071492;28;20021;-58
2023/04/03 03:56:43;;;;;;;;;;;;;;;2.45;65.33;98788.22;5079676;28;19931;-58
2023/04/03 03:59:12;;;;;;;;;;;;;;;2.47;65.02;98786.09;5084164;28;20190;-57
2023/04/03 04:01:41;;;;;;;;;;;;;;;2.47;65.23;98785.28;5078474;28;19959;-58
2023/04/03 04:04:09;;;;;;;;;;;;;;;2.39;65.68;98794.50;5090294;28;19971;-58
2023/04/03 04:06:37;;;;;;;;;;;;;;;2.44;65.67;98791.13;5096374;28;19973;-59
2023/04/03 04:09:10;;;;;;;;;;;;;;;2.47;65.96;98785.28;5082370;28;19935;-57
2023/04/03 04:11:39;;;;;;;;;;;;;;;2.35;66.10;98794.19;5073592;28;19970;-59
2023/04/03 04:14:10;;;;;;;;;;;;;;;2.47;65.94;98785.28;5094246;28;19960;-58
2023/04/03 04:16:38;;;;;;;;;;;;;;;2.43;66.14;98801.03;5092911;28;20003;-58
2023/04/03 04:19:11;;;;;;;;;;;;;;;2.38;66.10;98800.13;5085138;28;19950;-58
2023/04/03 04:21:41;;;;;;;;;;;;;;;2.45;66.16;98788.22;5090672;28;21414;-58
2023/04/03 04:24:10;;;;;;;;;;;;;;;2.49;66.34;98793.91;5107392;28;20469;-58
2023/04/03 04:26:39;;;;;;;;;;;;;;;2.46;66.05;98789.84;5096361;27;19931;-59
2023/04/03 04:29:09;;;;;;;;;;;;;;;2.47;66.62;98790.66;5093234;28;19992;-58
2023/04/03 04:31:37;;;;;;;;;;;;;;;2.45;66.30;98798.94;5105527;28;19930;-57
2023/04/03 04:34:05;;;;;;;;;;;;;;;2.54;66.14;98789.47;5104274;27;19924;-58
2023/04/03 04:36:34;;;;;;;;;;;;;;;2.52;66.14;98790.75;5092234;28;19963;-58
2023/04/03 04:39:03;;;;;;;;;;;;;;;2.44;66.48;98796.50;5108975;28;19931;-57
2023/04/03 04:41:32;;;;;;;;;;;;;;;2.51;66.17;98798.00;5092911;28;19936;-58
2023/04/03 04:44:03;;;;;;;;;;;;;;;2.40;66.86;98806.88;5087112;28;19928;-57
2023/04/03 04:46:31;;;;;;;;;;;;;;;2.47;66.61;98807.56;5089238;28;19946;-57
2023/04/03 04:49:02;;;;;;;;;;;;;;;2.43;66.59;98803.72;5091915;28;19924;-58
2023/04/03 04:51:31;;;;;;;;;;;;;;;2.41;66.94;98799.66;5094810;28;19935;-58
2023/04/03 04:54:09;;;;;;;;;;;;;;;2.33;67.46;98808.88;5107395;28;20028;-57
2023/04/03 04:56:39;;;;;;;;;;;;;;;2.39;67.71;98809.78;5088840;28;19959;-57
2023/04/03 04:59:07;;;;;;;;;;;;;;;2.23;68.28;98812.13;5106667;28;19947;-57
2023/04/03 05:01:35;;;;;;;;;;;;;;;2.05;69.04;98809.59;5089009;28;20273;-58
2023/04/03 05:04:12;;;;;;;;;;;;;;;2.32;68.10;98820.66;5090922;28;19924;-57
2023/04/03 05:06:40;;;;;;;;;;;;;;;2.22;68.09;98815.06;5090098;28;20532;-57
2023/04/03 05:09:16;;;;;;;;;;;;;;;2.16;68.62;98822.19;5095129;28;19927;-57
2023/04/03 05:11:47;;;;;;;;;;;;;;;2.13;69.15;98827.19;5080380;28;19931;-57
2023/04/03 05:14:17;;;;;;;;;;;;;;;2.15;68.85;98830.47;5110010;27;19938;-58
2023/04/03 05:16:45;;;;;;;;;;;;;;;2.43;67.47;98827.03;5093359;28;19969;-58
2023/04/03 05:19:14;;;;;;;;;;;;;;;2.40;67.39;98828.34;5107065;28;19928;-57
2023/04/03 05:21:42;;;;;;;;;;;;;;;2.25;67.70;98820.78;5091466;28;19923;-58
2023/04/03 05:24:14;;;;;;;;;;;;;;;2.33;67.49;98831.13;5086182;28;19932;-59
2023/04/03 05:26:44;;;;;;;;;;;;;;;2.40;67.92;98825.66;5091644;28;19931;-57
2023/04/03 05:29:14;;;;;;;;;;;;;;;2.38;68.01;98830.44;5091269;28;19928;-59
2023/04/03 05:31:42;;;;;;;;;;;;;;;2.48;67.55;98835.19;5084894;28;19931;-57
2023/04/03 05:34:12;;;;;;;;;;;;;;;2.37;67.92;98831.47;5083752;28;19932;-57
2023/04/03 05:36:41;;;;;;;;;;;;;;;2.47;67.44;98837.06;5104596;28;19924;-57
2023/04/03 05:39:09;;;;;;;;;;;;;;;2.52;67.43;98831.00;5104394;27;19928;-59
2023/04/03 05:41:40;;;;;;;;;;;;;;;2.63;67.46;98830.16;5090063;28;20006;-58
2023/04/03 05:44:08;;;;;;;;;;;;;;;2.65;66.90;98829.91;5103959;28;20371;-58
2023/04/03 05:46:38;;;;;;;;;;;;;;;2.68;66.75;98840.19;5079730;28;19928;-57
2023/04/03 05:49:08;;;;;;;;;;;;;;;2.55;67.51;98838.56;5104530;27;19967;-57
2023/04/03 05:51:38;;;;;;;;;;;;;;;2.58;67.03;98841.59;5092289;28;19930;-57
2023/04/03 05:54:27;;;;;;;;;;;;;;;2.73;66.94;98845.66;5097417;28;20427;-57
2023/04/03 05:57:11;;;;;;;;;;;;;;;2.90;66.45;98843.84;5089076;28;19928;-57
2023/04/03 05:59:41;;;;;;;;;;;;;;;2.97;65.88;98841.00;5076818;28;19924;-57
2023/04/03 06:02:11;;;;;;;;;;;;;;;2.96;65.95;98848.25;5079504;28;19935;-57
2023/04/03 06:04:39;;;;;;;;;;;;;;;3.03;65.48;98842.75;5102620;28;19923;-58
2023/04/03 06:07:07;;;;;;;;;;;;;;;3.06;65.86;98848.44;5106391;28;19924;-57
2023/04/03 06:09:35;;;;;;;;;;;;;;;3.20;65.04;98848.19;5109589;28;19931;-57
2023/04/03 06:12:03;;;;;;;;;;;;;;;3.15;64.90;98847.03;5088069;28;19928;-57
2023/04/03 06:14:30;;;;;;;;;;;;;;;3.28;64.19;98850.47;5100066;28;19969;-57
2023/04/03 06:16:59;;;;;;;;;;;;;;;3.30;64.02;98853.72;5082012;28;20023;-57
2023/04/03 06:19:28;;;;;;;;;;;;;;;3.37;64.19;98854.41;5103128;28;19935;-57
2023/04/03 06:21:57;;;;;;;;;;;;;;;3.45;63.31;98861.22;5098800;27;19935;-58
2023/04/03 06:24:26;;;;;;;;;;;;;;;3.29;63.93;98857.47;5089462;28;19924;-57
2023/04/03 06:26:53;;;;;;;;;;;;;;;3.36;63.32;98863.50;5098587;28;20429;-58
2023/04/03 06:29:21;;;;;;;;;;;;;;;3.43;63.46;98864.16;5109340;28;19928;-57
2023/04/03 06:31:49;;;;;;;;;;;;;;;3.48;63.09;98872.31;5092635;28;19932;-56
2023/04/03 06:34:17;;;;;;;;;;;;;;;3.44;62.99;98864.97;5106246;28;19923;-57
2023/04/03 06:36:47;;;;;;;;;;;;;;;3.47;62.61;98875.25;5115082;28;20380;-57
2023/04/03 06:39:15;;;;;;;;;;;;;;;3.30;63.10;98872.50;5115222;27;19928;-57
2023/04/03 06:41:43;;;;;;;;;;;;;;;3.43;62.94;98872.22;5119645;27;20146;-57
2023/04/03 06:44:13;;;;;;;;;;;;;;;3.28;62.70;98871.94;5117028;27;20212;-61
2023/04/03 06:46:41;;;;;;;;;;;;;;;3.40;62.82;98881.56;5106762;27;19935;-57
2023/04/03 06:49:09;;;;;;;;;;;;;;;3.36;63.01;98883.13;5113507;27;19976;-57
2023/04/03 06:51:37;;;;;;;;;;;;;;;3.35;62.26;98873.41;5115526;27;19923;-57
2023/04/03 06:54:07;;;;;;;;;;;;;;;3.21;62.56;98890.09;5110480;27;20403;-58
2023/04/03 06:56:36;;;;;;;;;;;;;;;3.41;62.52;98885.91;5109697;27;19924;-57
2023/04/03 06:59:03;;;;;;;;;;;;;;;3.37;61.66;98876.69;5093991;28;19932;-56
2023/04/03 07:01:31;;;;;;;;;;;;;;;3.49;62.21;98887.38;5079912;28;20471;-59
2023/04/03 07:03:59;;;;;;;;;;;;;;;3.53;60.94;98891.22;5095467;28;19924;-57
2023/04/03 07:06:30;;;;;;;;;;;;;;;3.54;61.04;98898.22;5115573;28;19941;-57
2023/04/03 07:08:58;;;;;;;;;;;;;;;3.49;61.45;98903.50;5114508;27;19954;-58
2023/04/03 07:11:28;;;;;;;;;;;;;;;3.62;60.79;98900.53;5112791;28;19934;-57
2023/04/03 07:13:56;;;;;;;;;;;;;;;3.76;60.17;98902.88;5118430;27;19924;-58
2023/04/03 07:16:24;;;;;;;;;;;;;;;3.79;60.70;98905.91;5108918;28;20026;-57
2023/04/03 07:18:52;;;;;;;;;;;;;;;3.86;60.50;98906.56;5110408;27;19932;-58
2023/04/03 07:21:20;;;;;;;;;;;;;;;3.68;60.16;98921.06;5111476;28;19924;-57
2023/04/03 07:23:48;;;;;;;;;;;;;;;3.85;60.51;98921.06;5084762;28;19935;-57
2023/04/03 07:26:22;;;;;;;;;;;;;;;3.84;59.31;98915.94;5086406;28;19978;-57
2023/04/03 07:28:51;;;;;;;;;;;;;;;3.77;59.59;98918.78;5092499;28;19924;-57
2023/04/03 07:31:19;;;;;;;;;;;;;;;3.73;59.51;98917.66;5078665;28;19924;-57
2023/04/03 07:33:47;;;;;;;;;;;;;;;4.02;58.55;98920.28;5069799;28;19925;-57
2023/04/03 07:36:15;;;;;;;;;;;;;;;3.89;58.96;98914.16;5069667;28;19928;-57
2023/04/03 07:38:43;;;;;;;;;;;;;;;4.00;59.45;98919.72;5074257;28;19931;-57
2023/04/03 07:41:12;;;;;;;;;;;;;;;4.22;58.98;98920.59;5090733;28;20247;-57
2023/04/03 07:43:40;;;;;;;;;;;;;;;4.32;58.20;98931.53;5090808;28;19928;-58
2023/04/03 07:46:12;;;;;;;;;;;;;;;4.06;57.68;98926.81;5059199;28;19928;-57
2023/04/03 07:48:40;;;;;;;;;;;;;;;4.27;57.10;98928.75;5085155;28;19954;-57
2023/04/03 07:51:08;;;;;;;;;;;;;;;4.31;56.68;98926.38;5092819;28;20369;-58
2023/04/03 07:53:36;;;;;;;;;;;;;;;4.18;57.18;98931.03;5084382;28;20708;-57
2023/04/03 07:56:04;;;;;;;;;;;;;;;4.34;56.87;98928.59;5082290;28;19924;-57
2023/04/03 07:58:32;;;;;;;;;;;;;;;4.28;55.13;98925.00;5091017;28;19959;-58
2023/04/03 08:01:00;;;;;;;;;;;;;;;4.25;56.07;98932.72;5074097;28;19935;-57
2023/04/03 08:03:29;;;;;;;;;;;;;;;4.58;56.04;98929.19;5082911;28;19928;-57
2023/04/03 08:06:02;;;;;;;;;;;;;;;4.47;56.11;98921.00;5072256;28;19933;-57
2023/04/03 08:08:31;;;;;;;;;;;;;;;4.57;55.97;98933.75;5090344;28;19924;-58
2023/04/03 08:10:59;;;;;;;;;;;;;;;4.46;55.54;98935.50;5088366;28;20376;-57
2023/04/03 08:13:27;;;;;;;;;;;;;;;4.65;55.25;98936.03;5075413;28;20438;-57
2023/04/03 08:15:56;;;;;;;;;;;;;;;4.81;54.42;98934.38;5078401;28;20386;-58
2023/04/03 08:18:25;;;;;;;;;;;;;;;4.94;54.62;98934.00;5069859;28;19932;-57
2023/04/03 08:20:54;;;;;;;;;;;;;;;4.73;54.18;98941.00;5077103;28;20015;-57
2023/04/03 08:23:22;;;;;;;;;;;;;;;5.12;53.76;98934.78;5108059;27;19927;-59
2023/04/03 08:25:52;;;;;;;;;;;;;;;5.51;53.06;98941.69;5092807;28;19928;-57
2023/04/03 08:28:20;;;;;;;;;;;;;;;6.09;51.40;98944.72;5100278;28;19924;-57
2023/04/03 08:30:49;;;;;;;;;;;;;;;6.26;49.47;98929.22;5096488;28;19938;-58
2023/04/03 08:33:17;;;;;;;;;;;;;;;6.28;51.03;98951.38;5092518;28;20335;-57
2023/04/03 08:35:45;;;;;;;;;;;;;;;5.36;50.69;98941.53;5098607;28;19931;-59
2023/04/03 08:38:14;;;;;;;;;;;;;;;5.32;51.94;98942.28;5103620;28;19981;-57
2023/04/03 08:40:46;;;;;;;;;;;;;;;5.28;51.71;98941.19;5101387;28;19931;-57
2023/04/03 08:43:22;;;;;;;;;;;;;;;5.57;51.31;98930.97;5104045;27;19955;-57
2023/04/03 08:45:51;;;;;;;;;;;;;;;5.31;49.24;98948.75;5102085;27;20381;-57
2023/04/03 08:48:21;;;;;;;;;;;;;;;5.18;48.37;98939.97;5093734;28;19940;-57
2023/04/03 08:50:50;;;;;;;;;;;;;;;5.18;48.39;98933.78;5089385;28;19924;-57
2023/04/03 08:53:22;;;;;;;;;;;;;;;5.31;48.27;98948.75;5107762;28;19924;-58
2023/04/03 08:55:50;;;;;;;;;;;;;;;5.36;47.81;98946.09;5105585;27;19977;-57
2023/04/03 08:58:19;;;;;;;;;;;;;;;5.21;47.87;98938.66;5102820;28;19931;-57
2023/04/03 09:00:48;;;;;;;;;;;;;;;5.39;48.05;98940.22;5084759;28;19924;-57
2023/04/03 09:03:16;;;;;;;;;;;;;;;5.21;46.71;98944.84;5105478;28;21752;-58
2023/04/03 09:05:46;;;;;;;;;;;;;;;5.05;48.07;98950.31;5094470;28;20018;-58
2023/04/03 09:08:17;;;;;;;;;;;;;;;5.53;46.84;98952.22;5102241;28;19928;-57
2023/04/03 09:10:46;;;;;;;;;;;;;;;4.98;48.69;98947.78;5105255;28;19924;-57
2023/04/03 09:13:15;;;;;;;;;;;;;;;4.92;48.99;98956.88;5092510;28;19924;-57
2023/04/03 09:15:43;;;;;;;;;;;;;;;4.63;49.41;98959.69;5102691;28;19924;-58
2023/04/03 09:18:14;;;;;;;;;;;;;;;4.57;49.75;98955.28;5111211;28;19977;-57
2023/04/03 09:20:44;;;;;;;;;;;;;;;4.59;48.82;98957.75;5111421;28;19924;-58
2023/04/03 09:23:15;;;;;;;;;;;;;;;4.57;48.74;98968.75;5075389;28;19928;-58
2023/04/03 09:25:43;;;;;;;;;;;;;;;4.51;48.58;98964.34;5088634;28;19924;-57
2023/04/03 09:28:15;;;;;;;;;;;;;;;4.27;48.09;98954.84;5090945;28;19930;-57
2023/04/03 09:30:43;;;;;;;;;;;;;;;4.35;46.83;98957.09;5087050;28;19924;-57
2023/04/03 09:33:11;;;;;;;;;;;;;;;4.54;47.26;98955.81;5077103;28;19977;-57
2023/04/03 09:35:39;;;;;;;;;;;;;;;4.44;48.24;98961.84;5086651;28;19924;-57
2023/04/03 09:38:16;;;;;;;;;;;;;;;4.36;47.74;98970.31;5070302;28;19939;-58
2023/04/03 09:40:46;;;;;;;;;;;;;;;4.50;47.83;98954.66;5089002;28;19954;-58
2023/04/03 09:43:26;;;;;;;;;;;;;;;4.72;47.75;98950.13;5089555;28;20044;-57
2023/04/03 09:45:54;;;;;;;;;;;;;;;5.08;46.94;98950.63;5083343;28;19928;-58
2023/04/03 09:48:25;;;;;;;;;;;;;;;5.14;46.01;98946.13;5085040;28;19930;-57
2023/04/03 09:50:55;;;;;;;;;;;;;;;5.52;46.10;98950.59;5081260;28;19927;-57
2023/04/03 09:53:27;;;;;;;;;;;;;;;5.62;44.30;98958.00;5085964;28;20281;-57
2023/04/03 09:55:58;;;;;;;;;;;;;;;5.89;43.24;98950.72;5088736;28;19924;-58
2023/04/03 09:58:28;;;;;;;;;;;;;;;5.59;43.67;98950.41;5092454;28;19924;-57
2023/04/03 10:01:10;;;;;;;;;;;;;;;5.67;42.81;98937.28;5086247;28;19993;-59
2023/04/03 10:03:41;;;;;;;;;;;;;;;5.78;42.27;98932.81;5086700;28;19981;-58
2023/04/03 10:06:22;;;;;;;;;;;;;;;5.63;42.83;98929.97;5090014;28;19924;-57
2023/04/03 10:08:59;;;;;;;;;;;;;;;5.57;43.20;98942.56;5091335;28;19924;-60
2023/04/03 10:11:27;;;;;;;;;;;;;;;5.26;43.69;98947.59;5075548;28;19924;-59
2023/04/03 10:13:59;;;;;;;;;;;;;;;5.11;43.56;98944.72;5089563;28;19924;-64
2023/04/03 10:16:28;;;;;;;;;;;;;;;4.96;43.56;98941.84;5084585;28;19969;-57
2023/04/03 10:19:04;;;;;;;;;;;;;;;5.08;44.07;98944.44;5067532;28;20802;-58
2023/04/03 10:21:36;;;;;;;;;;;;;;;5.32;43.85;98934.19;5071050;28;19977;-59
2023/04/03 10:24:07;;;;;;;;;;;;;;;5.69;42.41;98927.06;5084732;28;20000;-57
2023/04/03 10:26:37;;;;;;;;;;;;;;;5.85;42.20;98922.63;5091599;28;20035;-58
2023/04/03 10:29:10;;;;;;;;;;;;;;;5.81;42.37;98923.41;5070545;28;20297;-59
2023/04/03 10:31:40;;;;;;;;;;;;;;;5.61;42.03;98919.44;5082231;28;19924;-58
2023/04/03 10:34:10;;;;;;;;;;;;;;;5.74;42.43;98924.41;5089254;28;19924;-58
2023/04/03 10:36:39;;;;;;;;;;;;;;;5.57;42.69;98926.41;5088780;28;19935;-57
2023/04/03 10:39:11;;;;;;;;;;;;;;;5.64;41.83;98926.19;5081228;28;19924;-58
2023/04/03 10:41:43;;;;;;;;;;;;;;;5.88;41.63;98921.31;5083712;28;19967;-59
2023/04/03 10:44:15;;;;;;;;;;;;;;;5.56;39.84;98918.56;5080893;28;20353;-58
2023/04/03 10:46:43;;;;;;;;;;;;;;;5.55;41.30;98917.75;5092075;28;19965;-58
2023/04/03 10:49:17;;;;;;;;;;;;;;;5.58;40.66;98921.81;5087684;28;20245;-58
2023/04/03 10:51:46;;;;;;;;;;;;;;;5.84;41.71;98914.78;5088200;28;19924;-58
2023/04/03 10:54:14;;;;;;;;;;;;;;;5.96;40.92;98915.47;5085634;28;19924;-58
2023/04/03 10:56:42;;;;;;;;;;;;;;;6.06;39.60;98899.38;5105183;28;19924;-58
2023/04/03 10:59:20;;;;;;;;;;;;;;;6.27;39.66;98903.84;5083075;28;19935;-58
2023/04/03 11:01:49;;;;;;;;;;;;;;;6.27;39.74;98903.03;5097443;28;20395;-58
2023/04/03 11:04:17;;;;;;;;;;;;;;;6.38;40.04;98909.31;5089527;28;19924;-60
2023/04/03 11:06:49;;;;;;;;;;;;;;;6.38;39.07;98901.22;5090262;28;19947;-58
2023/04/03 11:09:19;;;;;;;;;;;;;;;6.29;40.47;98896.31;5091504;28;19950;-58
2023/04/03 11:11:47;;;;;;;;;;;;;;;6.61;40.12;98902.75;5081643;28;19924;-58
2023/04/03 11:14:16;;;;;;;;;;;;;;;6.91;38.06;98883.16;5086201;28;19931;-58
2023/04/03 11:16:47;;;;;;;;;;;;;;;7.21;36.76;98891.41;5084904;28;19931;-58
2023/04/03 11:19:24;;;;;;;;;;;;;;;6.62;36.64;98886.28;5088555;28;19931;-57
2023/04/03 11:21:52;;;;;;;;;;;;;;;6.56;37.38;98879.22;5096175;28;19977;-59
2023/04/03 11:24:22;;;;;;;;;;;;;;;6.18;38.02;98878.44;5090166;28;19928;-57
2023/04/03 11:26:52;;;;;;;;;;;;;;;6.26;40.60;98883.34;5085630;28;19928;-59
2023/04/03 11:29:23;;;;;;;;;;;;;;;6.29;39.18;98882.03;5084361;28;19931;-59
2023/04/03 11:32:06;;;;;;;;;;;;;;;6.24;37.60;98880.09;5082839;28;19924;-56
2023/04/03 11:34:36;;;;;;;;;;;;;;;6.30;36.45;98884.47;5086964;28;19935;-57
2023/04/03 11:37:05;;;;;;;;;;;;;;;6.60;35.41;98872.19;5089814;28;19924;-58
2023/04/03 11:39:33;;;;;;;;;;;;;;;6.69;34.72;98870.63;5099248;28;20002;-57
2023/04/03 11:42:14;;;;;;;;;;;;;;;7.39;34.95;98864.94;5095423;28;19967;-58
2023/04/03 11:44:42;;;;;;;;;;;;;;;7.55;34.17;98864.72;5094589;28;19928;-56
2023/04/03 11:47:12;;;;;;;;;;;;;;;7.78;35.04;98855.28;5080360;28;19935;-57
2023/04/03 11:49:55;;;;;;;;;;;;;;;7.27;35.77;98862.50;5082436;28;19955;-56
2023/04/03 11:52:42;;;;;;;;;;;;;;;7.47;36.06;98861.75;5083315;28;19928;-58
2023/04/03 11:55:26;;;;;;;;;;;;;;;6.99;36.49;98858.38;5069947;28;20708;-57
2023/04/03 11:58:05;;;;;;;;;;;;;;;6.36;36.79;98863.72;5085428;28;19928;-57
2023/04/03 12:01:06;;;;;;;;;;;;;;;6.54;36.55;98857.88;5077017;28;20368;-57
2023/04/03 12:03:56;;;;;;;;;;;;;;;6.76;34.49;98856.88;5019050;28;19935;-57
2023/04/03 12:06:55;;;;;;;;;;;;;;;7.50;33.17;98842.25;5024008;28;19932;-57
2023/04/03 12:09:27;;;;;;;;;;;;;;;8.32;32.76;98845.78;4999426;28;19972;-57
2023/04/03 12:11:56;;;;;;;;;;;;;;;8.28;33.24;98850.94;5020669;28;19971;-58
2023/04/03 12:14:26;;;;;;;;;;;;;;;7.71;35.29;98838.50;5025326;28;20002;-57
2023/04/03 12:16:57;;;;;;;;;;;;;;;7.24;36.45;98847.59;5022732;28;20060;-58
2023/04/03 12:19:34;;;;;;;;;;;;;;;6.83;36.87;98844.78;5029544;28;20028;-57
2023/04/03 12:22:09;;;;;;;;;;;;;;;6.61;37.60;98833.34;5028422;28;20024;-58
2023/04/03 12:24:39;;;;;;;;;;;;;;;6.65;37.16;98839.84;5055070;28;19932;-58
2023/04/03 12:27:15;;;;;;;;;;;;;;;6.87;37.08;98841.53;5047245;28;19925;-57
2023/04/03 12:29:45;;;;;;;;;;;;;;;7.11;36.73;98831.91;5032827;28;19975;-58
2023/04/03 12:32:17;;;;;;;;;;;;;;;7.61;36.72;98830.38;5024987;28;20479;-57
2023/04/03 12:34:56;;;;;;;;;;;;;;;7.05;36.19;98820.28;5082147;28;19936;-58
2023/04/03 12:37:31;;;;;;;;;;;;;;;7.27;36.67;98825.47;5107743;28;20377;-59
2023/04/03 12:40:03;;;;;;;;;;;;;;;7.46;36.15;98822.28;5106620;28;19927;-58
2023/04/03 12:42:47;;;;;;;;;;;;;;;6.63;37.43;98819.59;5101718;28;19924;-59
2023/04/03 12:45:17;;;;;;;;;;;;;;;6.33;38.33;98814.81;5075390;28;19927;-57
2023/04/03 12:47:45;;;;;;;;;;;;;;;6.78;38.05;98817.75;5110027;28;19923;-56
2023/04/03 12:50:24;;;;;;;;;;;;;;;7.02;37.14;98803.78;5101660;28;19928;-57
2023/04/03 12:53:01;;;;;;;;;;;;;;;7.28;36.63;98807.34;5091731;28;20293;-58
2023/04/03 12:55:30;;;;;;;;;;;;;;;7.32;35.96;98806.56;5099344;28;20351;-57
2023/04/03 12:57:58;;;;;;;;;;;;;;;7.78;35.98;98809.31;5111908;28;19924;-57
2023/04/03 13:00:29;;;;;;;;;;;;;;;8.01;34.80;98801.72;5095044;28;19947;-57
2023/04/03 13:03:00;;;;;;;;;;;;;;;7.59;35.79;98798.19;5095541;28;19931;-56
2023/04/03 13:05:33;;;;;;;;;;;;;;;7.60;36.15;98802.53;5112030;28;19934;-57
2023/04/03 13:08:05;;;;;;;;;;;;;;;7.36;37.04;98796.03;5110601;27;19950;-57
2023/04/03 13:10:33;;;;;;;;;;;;;;;7.34;36.80;98796.28;5087919;28;20305;-58
2023/04/03 13:13:07;;;;;;;;;;;;;;;7.15;38.09;98799.78;5093793;28;19927;-58